createdAt,value
2017-06-30T00:15:58.646Z,21.371589999999998
2017-06-30T00:36:03.686Z,21.309112
2017-06-30T00:56:08.706Z,21.309112
2017-06-30T01:16:13.625Z,21.246634
2017-06-30T01:36:18.691Z,21.246634
2017-06-30T01:56:23.737Z,21.246634
2017-06-30T02:16:28.786Z,21.184155999999998
2017-06-30T02:36:33.808Z,21.184155999999998
2017-06-30T02:56:38.977Z,21.121678
2017-06-30T03:16:44.027Z,21.121678
2017-06-30T03:36:49.072Z,21.121678
2017-06-30T03:56:54.157Z,21.121678
2017-06-30T04:16:59.155Z,21.121678
2017-06-30T04:37:04.344Z,21.121678
2017-06-30T04:57:09.149Z,21.121678
2017-06-30T05:17:14.204Z,21.121678
2017-06-30T06:37:34.367Z,21.059199999999997
2017-06-30T06:57:39.475Z,21.059199999999997
2017-06-30T07:17:44.539Z,21.059199999999997
2017-06-30T07:37:49.511Z,21.059199999999997
2017-06-30T07:57:54.796Z,21.059199999999997
2017-06-30T08:38:04.675Z,21.059199999999997
2017-06-30T08:58:09.692Z,21.059199999999997
2017-06-30T09:18:13.835Z,21.059199999999997
2017-06-30T09:58:23.913Z,21.121678
2017-06-30T10:18:28.879Z,21.184155999999998
2017-06-30T10:38:34.041Z,21.184155999999998
2017-06-30T10:58:39.051Z,21.184155999999998
2017-06-30T11:18:44.017Z,21.184155999999998
2017-06-30T11:38:49.079Z,21.184155999999998
2017-06-30T11:58:54.102Z,21.184155999999998
2017-06-30T12:18:59.199Z,21.184155999999998
2017-06-30T12:39:04.304Z,21.246634
2017-06-30T12:59:09.218Z,21.246634
2017-06-30T13:19:14.375Z,21.246634
2017-06-30T13:39:19.537Z,21.246634
2017-06-30T13:59:24.351Z,21.246634
2017-06-30T14:19:29.511Z,21.246634
2017-06-30T14:59:39.586Z,21.309112
2017-06-30T15:19:44.724Z,21.246634
2017-06-30T15:39:49.731Z,21.246634
2017-06-30T16:19:59.691Z,21.246634
2017-06-30T16:40:04.796Z,21.246634
2017-06-30T17:00:09.871Z,21.246634
2017-06-30T18:00:25.006Z,21.184155999999998
2017-06-30T18:20:29.950Z,21.184155999999998
2017-06-30T18:40:34.989Z,21.121678
2017-06-30T19:00:40.139Z,21.121678
2017-06-30T19:20:45.160Z,21.059199999999997
2017-06-30T19:40:50.124Z,21.059199999999997
2017-06-30T20:21:00.194Z,21.059199999999997
2017-06-30T20:41:05.343Z,21.059199999999997
2017-06-30T21:01:10.538Z,20.996722
2017-06-30T21:21:13.354Z,20.996722
2017-06-30T21:41:18.388Z,20.996722
2017-06-30T22:01:23.436Z,20.996722
2017-06-30T23:01:38.666Z,20.934244
2017-06-30T23:21:43.700Z,20.934244
2017-06-30T23:41:48.741Z,20.871765999999997
